Time;durP1;ratioP1;P1;durP2;ratioP2;P2;SDS_P1;SDS_P2;PMS_P1;PMS_P2;Temp;Humidity;BMP_temperature;BMP_pressure;BME280_temperature;BME280_humidity;BME280_pressure;Samples;Min_cycle;Max_cycle;Signal;HPM_P1;HPM_P2
2023/11/30 00:00:33;;;;;;;17.40;13.03;;;;;;;;;;5091719;28;20317;-81
2023/11/30 00:03:00;;;;;;;17.87;13.00;;;;;;;;;;5092061;28;20273;-81
2023/11/30 00:05:27;;;;;;;21.00;15.17;;;;;;;;;;5091747;28;20260;-82
2023/11/30 00:07:55;;;;;;;17.47;13.80;;;;;;;;;;5092380;28;20229;-81
2023/11/30 00:10:22;;;;;;;44.60;38.97;;;;;;;;;;5091642;28;20244;-82
2023/11/30 00:12:50;;;;;;;57.73;50.67;;;;;;;;;;5091995;28;20285;-81
2023/11/30 00:15:17;;;;;;;40.47;36.07;;;;;;;;;;5091806;28;20298;-82
2023/11/30 00:17:45;;;;;;;25.10;21.43;;;;;;;;;;5091313;28;20285;-82
2023/11/30 00:20:12;;;;;;;20.23;16.53;;;;;;;;;;5091910;28;20653;-80
2023/11/30 00:22:40;;;;;;;16.70;13.70;;;;;;;;;;5092156;28;20244;-81
2023/11/30 00:25:07;;;;;;;16.90;12.57;;;;;;;;;;5091781;28;20256;-81
2023/11/30 00:27:35;;;;;;;14.23;12.17;;;;;;;;;;5091320;28;20218;-82
2023/11/30 00:30:03;;;;;;;16.63;12.60;;;;;;;;;;5091993;28;20273;-81
2023/11/30 00:32:30;;;;;;;18.23;14.13;;;;;;;;;;5091686;28;20309;-81
2023/11/30 00:34:58;;;;;;;15.00;11.73;;;;;;;;;;5091625;28;20249;-82
2023/11/30 00:37:25;;;;;;;16.60;13.07;;;;;;;;;;5091664;28;20273;-82
2023/11/30 00:39:52;;;;;;;16.57;12.40;;;;;;;;;;5091428;28;20222;-82
2023/11/30 00:42:19;;;;;;;17.70;12.70;;;;;;;;;;5090921;28;20728;-82
2023/11/30 00:44:46;;;;;;;16.60;12.07;;;;;;;;;;5091393;28;20226;-81
2023/11/30 00:47:15;;;;;;;19.17;13.00;;;;;;;;;;5091220;28;20621;-82
2023/11/30 00:49:42;;;;;;;18.90;12.47;;;;;;;;;;5091635;28;20307;-82
2023/11/30 00:52:09;;;;;;;19.77;13.10;;;;;;;;;;5091303;28;20226;-81
2023/11/30 00:54:36;;;;;;;20.37;17.00;;;;;;;;;;5091422;28;20273;-81
2023/11/30 00:57:03;;;;;;;22.80;16.63;;;;;;;;;;5090585;28;20230;-82
2023/11/30 00:59:31;;;;;;;23.33;18.47;;;;;;;;;;5091356;28;20250;-82
2023/11/30 01:01:58;;;;;;;28.57;20.97;;;;;;;;;;5095439;28;20285;-82
2023/11/30 01:04:26;;;;;;;18.90;14.17;;;;;;;;;;5095279;28;20320;-83
2023/11/30 01:06:53;;;;;;;51.37;38.07;;;;;;;;;;5095379;28;20214;-82
2023/11/30 01:09:21;;;;;;;33.70;26.47;;;;;;;;;;5095326;28;20628;-82
2023/11/30 01:11:48;;;;;;;20.10;13.13;;;;;;;;;;5095189;28;20194;-81
2023/11/30 01:14:15;;;;;;;16.60;12.50;;;;;;;;;;5095199;28;20281;-82
2023/11/30 01:16:43;;;;;;;14.73;11.60;;;;;;;;;;5095443;28;20277;-81
2023/11/30 01:19:10;;;;;;;16.43;11.70;;;;;;;;;;5095202;28;20226;-81
2023/11/30 01:21:38;;;;;;;18.43;11.77;;;;;;;;;;5095161;28;20274;-82
2023/11/30 01:24:06;;;;;;;14.37;11.23;;;;;;;;;;5095453;28;20316;-82
2023/11/30 01:26:33;;;;;;;17.73;12.40;;;;;;;;;;5094597;28;20297;-82
2023/11/30 01:29:00;;;;;;;15.77;11.73;;;;;;;;;;5094815;28;20282;-82
2023/11/30 01:31:27;;;;;;;14.77;12.07;;;;;;;;;;5094706;28;20651;-81
2023/11/30 01:33:55;;;;;;;15.53;12.10;;;;;;;;;;5094701;28;20281;-82
2023/11/30 01:36:22;;;;;;;17.47;11.33;;;;;;;;;;5094692;28;20245;-81
2023/11/30 01:38:50;;;;;;;16.67;11.53;;;;;;;;;;5094719;28;20582;-82
2023/11/30 01:41:18;;;;;;;15.80;11.50;;;;;;;;;;5094406;28;20277;-82
2023/11/30 01:43:45;;;;;;;14.07;11.23;;;;;;;;;;5095122;28;20222;-82
2023/11/30 01:46:12;;;;;;;15.53;12.07;;;;;;;;;;5094587;28;20241;-82
2023/11/30 01:48:39;;;;;;;16.70;11.47;;;;;;;;;;5094590;28;20677;-82
2023/11/30 01:51:08;;;;;;;17.80;12.50;;;;;;;;;;5094699;28;20222;-82
2023/11/30 01:53:36;;;;;;;14.90;11.77;;;;;;;;;;5094327;28;20199;-82
2023/11/30 01:56:06;;;;;;;14.17;10.83;;;;;;;;;;5094155;28;20194;-82
2023/11/30 01:58:33;;;;;;;15.13;11.07;;;;;;;;;;5094227;28;20281;-82
2023/11/30 02:01:01;;;;;;;14.93;11.20;;;;;;;;;;5094664;28;20321;-82
2023/11/30 02:03:29;;;;;;;14.33;11.37;;;;;;;;;;5094128;28;20293;-82
2023/11/30 02:05:56;;;;;;;14.23;10.93;;;;;;;;;;5094681;28;20325;-82
2023/11/30 02:08:23;;;;;;;14.53;11.47;;;;;;;;;;5094400;28;20194;-82
2023/11/30 02:10:50;;;;;;;15.70;11.70;;;;;;;;;;5094418;28;20612;-82
2023/11/30 02:13:19;;;;;;;14.20;11.07;;;;;;;;;;5094096;28;20285;-82
2023/11/30 02:15:46;;;;;;;14.33;10.60;;;;;;;;;;5094759;28;20202;-82
2023/11/30 02:18:13;;;;;;;15.73;11.10;;;;;;;;;;5093888;28;20290;-81
2023/11/30 02:20:41;;;;;;;15.23;11.20;;;;;;;;;;5094099;28;20781;-82
2023/11/30 02:23:10;;;;;;;12.67;10.97;;;;;;;;;;5093758;28;20199;-81
2023/11/30 02:25:37;;;;;;;16.20;12.00;;;;;;;;;;5093778;28;20233;-82
2023/11/30 02:28:04;;;;;;;15.70;11.87;;;;;;;;;;5094647;28;20293;-82
2023/11/30 02:30:31;;;;;;;13.10;11.33;;;;;;;;;;5093551;28;20881;-82
2023/11/30 02:32:58;;;;;;;14.97;11.57;;;;;;;;;;5094158;28;20289;-81
2023/11/30 02:35:25;;;;;;;14.60;11.97;;;;;;;;;;5093560;28;20603;-81
2023/11/30 02:37:53;;;;;;;17.20;12.50;;;;;;;;;;5093252;28;20723;-82
2023/11/30 02:40:21;;;;;;;16.17;12.03;;;;;;;;;;5093722;28;20285;-82
2023/11/30 02:42:51;;;;;;;16.43;12.23;;;;;;;;;;5093426;28;20205;-82
2023/11/30 02:45:18;;;;;;;15.13;12.27;;;;;;;;;;5093531;28;20218;-82
2023/11/30 02:47:45;;;;;;;16.47;12.13;;;;;;;;;;5092915;28;20277;-81
2023/11/30 02:50:12;;;;;;;17.03;12.47;;;;;;;;;;5093128;28;20285;-81
2023/11/30 02:52:39;;;;;;;17.57;12.70;;;;;;;;;;5093689;28;20194;-81
2023/11/30 02:55:07;;;;;;;16.40;12.33;;;;;;;;;;5093188;28;20659;-81
2023/11/30 02:57:36;;;;;;;14.63;12.27;;;;;;;;;;5093394;28;20329;-81
2023/11/30 03:00:04;;;;;;;16.30;12.63;;;;;;;;;;5093444;28;20333;-82
2023/11/30 03:02:31;;;;;;;14.83;12.20;;;;;;;;;;5093349;28;20237;-81
2023/11/30 03:04:59;;;;;;;14.97;11.90;;;;;;;;;;5074608;28;20237;-82
2023/11/30 03:07:26;;;;;;;16.97;12.03;;;;;;;;;;5092821;28;20285;-82
2023/11/30 03:09:53;;;;;;;15.30;12.37;;;;;;;;;;5093229;28;20226;-81
2023/11/30 03:12:20;;;;;;;13.83;11.33;;;;;;;;;;5092887;28;20377;-81
2023/11/30 03:14:49;;;;;;;14.50;11.67;;;;;;;;;;5093558;28;20288;-82
2023/11/30 03:17:16;;;;;;;14.80;11.47;;;;;;;;;;5093028;28;20201;-81
2023/11/30 03:19:43;;;;;;;16.17;11.40;;;;;;;;;;5093135;28;20281;-82
2023/11/30 03:22:11;;;;;;;14.70;11.77;;;;;;;;;;5092407;28;20277;-81
2023/11/30 03:24:38;;;;;;;15.57;11.80;;;;;;;;;;5086134;28;20737;-81
2023/11/30 03:27:05;;;;;;;17.67;11.77;;;;;;;;;;5076048;28;20227;-81
2023/11/30 03:29:33;;;;;;;17.93;12.03;;;;;;;;;;5072952;28;20195;-80
2023/11/30 03:32:01;;;;;;;14.93;11.90;;;;;;;;;;5072851;28;20274;-81
2023/11/30 03:34:28;;;;;;;16.43;12.87;;;;;;;;;;5074520;28;20291;-82
2023/11/30 03:36:55;;;;;;;13.33;11.10;;;;;;;;;;5092362;28;20277;-82
2023/11/30 03:39:23;;;;;;;16.00;11.60;;;;;;;;;;5092576;28;20194;-82
2023/11/30 03:41:50;;;;;;;14.47;11.40;;;;;;;;;;5092325;28;20277;-83
2023/11/30 03:44:17;;;;;;;15.13;11.83;;;;;;;;;;5084707;28;20297;-81
2023/11/30 03:46:44;;;;;;;17.50;11.53;;;;;;;;;;5077095;28;20293;-81
2023/11/30 03:49:13;;;;;;;14.53;11.37;;;;;;;;;;5071788;28;20646;-82
2023/11/30 03:51:40;;;;;;;14.50;11.23;;;;;;;;;;5082761;28;20754;-81
2023/11/30 03:54:07;;;;;;;13.23;11.00;;;;;;;;;;5071791;28;20333;-80
2023/11/30 03:56:34;;;;;;;13.87;11.17;;;;;;;;;;5083938;28;20294;-80
2023/11/30 03:59:02;;;;;;;14.17;11.30;;;;;;;;;;5071739;28;20299;-81
2023/11/30 04:01:29;;;;;;;13.40;10.80;;;;;;;;;;5072026;28;20600;-81
2023/11/30 04:03:56;;;;;;;13.60;11.10;;;;;;;;;;5071449;28;20570;-81
2023/11/30 04:06:25;;;;;;;13.77;10.93;;;;;;;;;;5071178;28;20805;-81
2023/11/30 04:08:52;;;;;;;15.97;11.73;;;;;;;;;;5072165;28;20214;-82
2023/11/30 04:11:20;;;;;;;14.50;11.27;;;;;;;;;;5071850;28;20288;-82
2023/11/30 04:13:47;;;;;;;15.27;10.77;;;;;;;;;;5071781;28;20305;-80
2023/11/30 04:16:15;;;;;;;14.67;10.83;;;;;;;;;;5071873;28;20285;-81
2023/11/30 04:18:42;;;;;;;14.30;11.37;;;;;;;;;;5071536;28;20191;-81
2023/11/30 04:21:10;;;;;;;16.50;11.30;;;;;;;;;;5071453;28;20199;-81
2023/11/30 04:23:38;;;;;;;14.80;11.50;;;;;;;;;;5071575;28;20202;-82
2023/11/30 04:26:06;;;;;;;12.70;10.43;;;;;;;;;;5071435;28;20745;-81
2023/11/30 04:28:33;;;;;;;13.60;10.73;;;;;;;;;;5071261;28;20234;-81
2023/11/30 04:31:00;;;;;;;14.63;10.77;;;;;;;;;;5071375;28;20298;-81
2023/11/30 04:33:27;;;;;;;14.37;10.43;;;;;;;;;;5071457;28;20195;-81
2023/11/30 04:35:55;;;;;;;16.53;11.40;;;;;;;;;;5084259;28;20290;-81
2023/11/30 04:38:22;;;;;;;14.40;10.10;;;;;;;;;;5091791;28;20210;-81
2023/11/30 04:40:51;;;;;;;14.33;10.77;;;;;;;;;;5091274;28;20724;-82
2023/11/30 04:43:18;;;;;;;14.07;10.83;;;;;;;;;;5091504;28;20284;-82
2023/11/30 04:45:45;;;;;;;16.23;11.03;;;;;;;;;;5091326;28;20753;-81
2023/11/30 04:48:13;;;;;;;14.47;11.27;;;;;;;;;;5091132;28;20303;-81
2023/11/30 04:50:40;;;;;;;15.67;11.07;;;;;;;;;;5091759;28;20202;-82
2023/11/30 04:53:07;;;;;;;16.70;12.03;;;;;;;;;;5091333;28;20202;-83
2023/11/30 04:55:34;;;;;;;14.70;10.50;;;;;;;;;;5091393;28;20292;-81
2023/11/30 04:58:03;;;;;;;14.63;10.63;;;;;;;;;;5091318;28;20193;-82
2023/11/30 05:00:31;;;;;;;14.47;11.07;;;;;;;;;;5091396;28;20260;-81
2023/11/30 05:02:58;;;;;;;13.13;10.87;;;;;;;;;;5090889;28;20292;-81
2023/11/30 05:05:25;;;;;;;16.03;11.13;;;;;;;;;;5091347;28;20237;-81
2023/11/30 05:07:52;;;;;;;13.37;10.43;;;;;;;;;;5090925;28;20290;-82
2023/11/30 05:10:19;;;;;;;14.47;11.07;;;;;;;;;;5091485;28;20198;-81
2023/11/30 05:12:46;;;;;;;13.93;10.87;;;;;;;;;;5090980;28;20281;-82
2023/11/30 05:15:15;;;;;;;15.43;11.40;;;;;;;;;;5091737;28;20200;-81
2023/11/30 05:17:42;;;;;;;14.87;10.77;;;;;;;;;;5090672;28;20287;-81
2023/11/30 05:20:10;;;;;;;18.67;11.13;;;;;;;;;;5091224;28;20326;-82
2023/11/30 05:22:37;;;;;;;15.50;11.43;;;;;;;;;;5091457;28;20229;-81
2023/11/30 05:25:04;;;;;;;15.47;11.03;;;;;;;;;;5091179;28;20312;-81
2023/11/30 05:27:32;;;;;;;12.73;10.60;;;;;;;;;;5091089;28;20600;-81
2023/11/30 05:29:59;;;;;;;16.17;10.67;;;;;;;;;;5091481;28;20298;-80
2023/11/30 05:32:28;;;;;;;15.83;10.70;;;;;;;;;;5090931;28;20205;-81
2023/11/30 05:34:55;;;;;;;15.33;11.33;;;;;;;;;;5090728;28;20205;-82
2023/11/30 05:37:22;;;;;;;15.90;11.10;;;;;;;;;;5091207;28;20201;-82
2023/11/30 05:39:49;;;;;;;13.13;10.33;;;;;;;;;;5090853;28;20276;-81
2023/11/30 05:42:17;;;;;;;13.10;9.87;;;;;;;;;;5090799;28;20200;-82
2023/11/30 05:44:44;;;;;;;13.53;10.27;;;;;;;;;;5090673;28;20614;-81
2023/11/30 05:47:11;;;;;;;16.30;10.27;;;;;;;;;;5092554;28;20586;-82
2023/11/30 05:49:39;;;;;;;15.63;11.10;;;;;;;;;;5095013;28;20236;-82
2023/11/30 05:52:07;;;;;;;14.10;11.00;;;;;;;;;;5094244;28;20698;-82
2023/11/30 05:54:34;;;;;;;17.87;11.47;;;;;;;;;;5094347;28;20727;-81
2023/11/30 05:57:02;;;;;;;15.37;11.40;;;;;;;;;;5085919;28;20204;-82
2023/11/30 05:59:30;;;;;;;17.30;12.20;;;;;;;;;;5074652;28;20301;-82
2023/11/30 06:01:57;;;;;;;17.97;12.10;;;;;;;;;;5073941;28;20278;-82
2023/11/30 06:04:24;;;;;;;17.00;11.87;;;;;;;;;;5074139;28;20196;-83
2023/11/30 06:06:53;;;;;;;17.13;12.17;;;;;;;;;;5073806;28;20309;-82
2023/11/30 06:09:20;;;;;;;15.93;12.13;;;;;;;;;;5074086;28;20266;-82
2023/11/30 06:11:47;;;;;;;16.90;12.60;;;;;;;;;;5074371;28;20218;-83
2023/11/30 06:14:14;;;;;;;15.37;11.83;;;;;;;;;;5087705;28;20201;-81
2023/11/30 06:16:41;;;;;;;15.47;11.27;;;;;;;;;;5094086;28;20223;-82
2023/11/30 06:19:09;;;;;;;14.30;11.47;;;;;;;;;;5094268;28;20239;-82
2023/11/30 06:21:36;;;;;;;15.60;11.63;;;;;;;;;;5094190;28;20212;-82
2023/11/30 06:24:06;;;;;;;15.47;11.80;;;;;;;;;;5093907;28;20242;-85
2023/11/30 06:26:33;;;;;;;16.67;11.23;;;;;;;;;;5093813;28;20231;-79
2023/11/30 06:29:00;;;;;;;15.13;11.20;;;;;;;;;;5091854;28;20239;-79
2023/11/30 06:31:27;;;;;;;14.17;11.60;;;;;;;;;;5077168;28;20289;-79
2023/11/30 06:33:54;;;;;;;16.87;10.97;;;;;;;;;;5093592;28;20296;-80
2023/11/30 06:36:24;;;;;;;16.73;11.57;;;;;;;;;;5093593;28;20263;-81
2023/11/30 06:38:51;;;;;;;15.13;11.80;;;;;;;;;;5093819;28;20201;-79
2023/11/30 06:41:19;;;;;;;13.17;11.40;;;;;;;;;;5094126;28;20217;-79
2023/11/30 06:43:46;;;;;;;14.80;11.80;;;;;;;;;;5093375;28;20752;-79
2023/11/30 06:46:20;;;;;;;16.17;11.20;;;;;;;;;;5093307;28;20315;-81
2023/11/30 06:48:47;;;;;;;18.30;14.40;;;;;;;;;;5093322;28;20197;-80
2023/11/30 06:51:15;;;;;;;18.23;14.07;;;;;;;;;;5093414;28;20201;-79
2023/11/30 06:53:42;;;;;;;18.50;14.53;;;;;;;;;;5075253;28;20202;-79
2023/11/30 06:56:11;;;;;;;17.83;13.40;;;;;;;;;;5093743;28;20284;-79
2023/11/30 06:58:39;;;;;;;19.57;13.23;;;;;;;;;;5092441;28;20207;-78
2023/11/30 07:01:07;;;;;;;16.07;12.03;;;;;;;;;;5093077;28;20231;-79
2023/11/30 07:03:34;;;;;;;15.20;12.33;;;;;;;;;;5092877;28;20290;-79
2023/11/30 07:06:02;;;;;;;16.00;11.87;;;;;;;;;;5080680;28;20324;-79
2023/11/30 07:08:29;;;;;;;14.87;11.67;;;;;;;;;;5079413;28;20303;-80
2023/11/30 07:10:56;;;;;;;15.03;10.90;;;;;;;;;;5077726;28;20301;-79
2023/11/30 07:13:23;;;;;;;15.37;11.73;;;;;;;;;;5080374;28;20644;-79
2023/11/30 07:15:52;;;;;;;14.33;10.60;;;;;;;;;;5074612;28;20206;-78
2023/11/30 07:18:19;;;;;;;14.93;10.77;;;;;;;;;;5075012;28;20211;-79
2023/11/30 07:20:48;;;;;;;13.97;10.73;;;;;;;;;;5087749;28;20241;-80
2023/11/30 07:23:16;;;;;;;14.30;11.00;;;;;;;;;;5087725;28;20206;-79
2023/11/30 07:25:44;;;;;;;15.47;11.27;;;;;;;;;;5083589;28;20219;-79
2023/11/30 07:28:11;;;;;;;14.20;10.73;;;;;;;;;;5086907;28;20308;-79
2023/11/30 07:30:41;;;;;;;14.27;10.97;;;;;;;;;;5081749;28;20646;-79
2023/11/30 07:33:09;;;;;;;15.20;11.13;;;;;;;;;;5083440;28;20296;-82
2023/11/30 07:35:37;;;;;;;17.40;10.93;;;;;;;;;;5070117;28;20230;-81
2023/11/30 07:38:04;;;;;;;17.07;10.63;;;;;;;;;;5065353;28;20583;-82
2023/11/30 07:40:32;;;;;;;15.33;10.27;;;;;;;;;;5072234;28;20289;-81
2023/11/30 07:42:59;;;;;;;14.57;10.50;;;;;;;;;;5071820;28;20192;-82
2023/11/30 07:45:26;;;;;;;18.67;10.73;;;;;;;;;;5072693;28;20209;-82
2023/11/30 07:47:54;;;;;;;14.57;10.70;;;;;;;;;;5078424;28;20226;-81
2023/11/30 07:50:22;;;;;;;16.30;10.37;;;;;;;;;;5092298;28;20240;-81
2023/11/30 07:52:49;;;;;;;16.17;10.40;;;;;;;;;;5092257;28;20229;-80
2023/11/30 07:55:17;;;;;;;17.97;11.07;;;;;;;;;;5092277;28;20232;-81
2023/11/30 07:57:44;;;;;;;15.43;11.03;;;;;;;;;;5091083;28;20917;-81
2023/11/30 08:00:11;;;;;;;15.60;10.57;;;;;;;;;;5091762;28;20226;-81
2023/11/30 08:02:39;;;;;;;17.27;10.60;;;;;;;;;;5076627;28;20204;-81
2023/11/30 08:05:06;;;;;;;13.60;10.60;;;;;;;;;;5071327;28;20281;-82
2023/11/30 08:07:35;;;;;;;14.03;10.47;;;;;;;;;;5071113;28;20244;-81
2023/11/30 08:10:04;;;;;;;14.07;10.40;;;;;;;;;;5071254;28;20760;-81
2023/11/30 08:12:32;;;;;;;16.10;10.50;;;;;;;;;;5074368;28;20204;-82
2023/11/30 08:14:59;;;;;;;16.30;10.13;;;;;;;;;;5079301;28;20203;-81
2023/11/30 08:17:25;;;;;;;14.93;10.70;;;;;;;;;;5071655;28;20373;-82
2023/11/30 08:19:52;;;;;;;14.13;9.80;;;;;;;;;;5071505;28;20196;-82
2023/11/30 08:22:20;;;;;;;14.03;10.07;;;;;;;;;;5071502;28;20294;-82
2023/11/30 08:24:48;;;;;;;14.07;9.60;;;;;;;;;;5072163;28;20283;-81
2023/11/30 08:27:16;;;;;;;17.50;10.43;;;;;;;;;;5071151;28;20223;-82
2023/11/30 08:29:43;;;;;;;12.10;9.57;;;;;;;;;;5071083;28;20282;-81
2023/11/30 08:32:11;;;;;;;13.43;10.27;;;;;;;;;;5071278;28;20198;-80
2023/11/30 08:34:38;;;;;;;15.23;9.50;;;;;;;;;;5074124;28;20194;-81
2023/11/30 08:37:05;;;;;;;14.17;9.77;;;;;;;;;;5090641;28;20881;-82
2023/11/30 08:39:33;;;;;;;12.23;9.87;;;;;;;;;;5091606;28;20236;-81
2023/11/30 08:42:01;;;;;;;13.20;9.13;;;;;;;;;;5091008;28;20202;-81
2023/11/30 08:44:28;;;;;;;12.10;8.80;;;;;;;;;;5091569;28;20288;-81
2023/11/30 08:46:56;;;;;;;12.87;8.97;;;;;;;;;;5090959;28;20321;-81
2023/11/30 08:49:23;;;;;;;11.50;8.67;;;;;;;;;;5091179;28;20203;-82
2023/11/30 08:51:51;;;;;;;10.70;8.77;;;;;;;;;;5091264;28;20205;-81
2023/11/30 08:54:20;;;;;;;13.27;9.23;;;;;;;;;;5091219;28;20198;-81
2023/11/30 08:56:48;;;;;;;13.77;9.37;;;;;;;;;;5090093;28;20216;-81
2023/11/30 08:59:17;;;;;;;12.87;8.77;;;;;;;;;;5090683;28;20292;-82
2023/11/30 09:01:44;;;;;;;10.47;8.73;;;;;;;;;;5090678;28;20205;-81
2023/11/30 09:04:13;;;;;;;11.80;9.17;;;;;;;;;;5090796;28;20666;-82
2023/11/30 09:06:40;;;;;;;12.70;8.60;;;;;;;;;;5072791;28;20227;-81
2023/11/30 09:09:07;;;;;;;10.70;8.20;;;;;;;;;;5090501;28;20241;-81
2023/11/30 09:11:35;;;;;;;11.83;8.93;;;;;;;;;;5090798;28;20600;-82
2023/11/30 09:14:03;;;;;;;8.67;7.67;;;;;;;;;;5090891;28;20201;-80
2023/11/30 09:16:32;;;;;;;9.47;7.70;;;;;;;;;;5091072;28;20290;-79
2023/11/30 09:18:59;;;;;;;11.50;7.53;;;;;;;;;;5090716;28;20190;-80
2023/11/30 09:21:26;;;;;;;10.20;7.93;;;;;;;;;;5092513;28;20197;-80
2023/11/30 09:23:53;;;;;;;9.67;7.53;;;;;;;;;;5094138;28;20225;-79
2023/11/30 09:26:21;;;;;;;9.33;7.27;;;;;;;;;;5094895;28;20313;-78
2023/11/30 09:28:48;;;;;;;11.43;7.43;;;;;;;;;;5095254;28;20194;-79
2023/11/30 09:31:16;;;;;;;9.83;8.07;;;;;;;;;;5094615;28;20229;-78
2023/11/30 09:33:44;;;;;;;15.37;10.20;;;;;;;;;;5094483;28;20222;-79
2023/11/30 09:36:12;;;;;;;13.10;10.07;;;;;;;;;;5094138;28;20205;-78
2023/11/30 09:38:39;;;;;;;17.03;12.00;;;;;;;;;;5093425;28;20203;-79
2023/11/30 09:41:07;;;;;;;23.37;16.23;;;;;;;;;;5094634;28;20229;-79
2023/11/30 09:43:34;;;;;;;14.03;10.70;;;;;;;;;;5093563;28;20232;-79
2023/11/30 09:46:02;;;;;;;18.93;13.00;;;;;;;;;;5094523;28;20198;-79
2023/11/30 09:48:29;;;;;;;13.37;9.83;;;;;;;;;;5094422;28;20259;-79
2023/11/30 09:50:58;;;;;;;14.60;10.60;;;;;;;;;;5095046;28;20191;-79
2023/11/30 09:53:25;;;;;;;17.60;13.83;;;;;;;;;;5093588;28;20230;-78
2023/11/30 09:55:52;;;;;;;14.00;10.77;;;;;;;;;;5094204;28;20715;-78
2023/11/30 09:58:19;;;;;;;11.50;8.90;;;;;;;;;;5094439;28;20571;-79
2023/11/30 10:00:46;;;;;;;9.43;7.23;;;;;;;;;;5093923;28;20321;-78
2023/11/30 10:03:14;;;;;;;13.10;9.57;;;;;;;;;;5094151;28;20198;-79
2023/11/30 10:05:43;;;;;;;9.03;7.60;;;;;;;;;;5094073;28;20281;-77
2023/11/30 10:08:13;;;;;;;9.30;7.07;;;;;;;;;;5093704;28;20226;-78
2023/11/30 10:10:40;;;;;;;9.00;7.27;;;;;;;;;;5093812;28;20232;-80
2023/11/30 10:13:07;;;;;;;8.93;6.70;;;;;;;;;;5093756;28;20222;-80
2023/11/30 10:15:34;;;;;;;9.27;6.80;;;;;;;;;;5094112;28;20635;-81
2023/11/30 10:18:05;;;;;;;10.17;7.30;;;;;;;;;;5093972;28;20291;-78
2023/11/30 10:20:32;;;;;;;10.03;6.87;;;;;;;;;;5094423;28;20277;-79
2023/11/30 10:22:59;;;;;;;8.60;6.90;;;;;;;;;;5093593;28;20244;-77
2023/11/30 10:25:28;;;;;;;10.30;7.00;;;;;;;;;;5093878;28;20690;-78
2023/11/30 10:27:56;;;;;;;7.97;6.43;;;;;;;;;;5093658;28;20324;-79
2023/11/30 10:30:27;;;;;;;8.50;6.57;;;;;;;;;;5094417;28;20286;-80
2023/11/30 10:32:55;;;;;;;10.17;6.93;;;;;;;;;;5092571;28;20199;-79
2023/11/30 10:35:23;;;;;;;8.10;6.60;;;;;;;;;;5093339;28;20237;-78
2023/11/30 10:37:51;;;;;;;8.33;6.73;;;;;;;;;;5092979;28;20282;-79
2023/11/30 10:40:19;;;;;;;8.87;7.53;;;;;;;;;;5093355;28;20195;-79
2023/11/30 10:42:49;;;;;;;8.77;6.50;;;;;;;;;;5093283;28;20222;-78
2023/11/30 10:45:17;;;;;;;7.77;6.77;;;;;;;;;;5093668;28;20282;-79
2023/11/30 10:47:45;;;;;;;7.90;6.70;;;;;;;;;;5093042;28;20706;-79
2023/11/30 10:50:12;;;;;;;10.63;7.20;;;;;;;;;;5093643;28;20191;-79
2023/11/30 10:52:39;;;;;;;9.20;6.27;;;;;;;;;;5093049;28;20201;-78
2023/11/30 10:55:09;;;;;;;8.37;6.30;;;;;;;;;;5093241;28;20574;-78
2023/11/30 10:57:36;;;;;;;10.00;6.33;;;;;;;;;;5093459;28;20719;-79
2023/11/30 11:00:05;;;;;;;8.93;6.50;;;;;;;;;;5092792;28;20651;-79
2023/11/30 11:02:39;;;;;;;8.00;6.43;;;;;;;;;;5093689;28;20581;-79
2023/11/30 11:05:09;;;;;;;11.83;6.97;;;;;;;;;;5077395;28;20227;-79
2023/11/30 11:07:37;;;;;;;10.30;6.93;;;;;;;;;;5092272;28;20313;-80
2023/11/30 11:10:06;;;;;;;10.70;6.73;;;;;;;;;;5095374;28;20659;-79
2023/11/30 11:12:37;;;;;;;10.07;7.10;;;;;;;;;;5092259;28;20666;-79
2023/11/30 11:15:09;;;;;;;10.73;6.67;;;;;;;;;;5093244;28;20239;-78
2023/11/30 11:17:46;;;;;;;10.27;6.80;;;;;;;;;;5091434;28;20685;-78
2023/11/30 11:20:20;;;;;;;8.07;6.50;;;;;;;;;;5090033;28;20222;-79
2023/11/30 11:22:47;;;;;;;8.63;6.60;;;;;;;;;;5092475;28;20678;-79
2023/11/30 11:25:17;;;;;;;8.30;6.70;;;;;;;;;;5091804;28;20289;-78
2023/11/30 11:27:44;;;;;;;7.67;6.50;;;;;;;;;;5091973;28;20232;-79
2023/11/30 11:30:14;;;;;;;7.83;6.20;;;;;;;;;;5092256;28;20190;-79
2023/11/30 11:32:42;;;;;;;9.47;7.20;;;;;;;;;;5092221;28;20197;-78
2023/11/30 11:35:10;;;;;;;9.77;6.50;;;;;;;;;;5088458;28;20285;-78
2023/11/30 11:37:37;;;;;;;8.20;5.93;;;;;;;;;;5091969;28;20579;-79
2023/11/30 11:40:04;;;;;;;13.23;11.90;;;;;;;;;;5091939;28;20198;-78
2023/11/30 11:42:32;;;;;;;7.77;6.77;;;;;;;;;;5091560;28;20232;-80
2023/11/30 11:45:01;;;;;;;9.63;7.33;;;;;;;;;;5090926;28;20205;-80
2023/11/30 11:47:30;;;;;;;8.63;6.67;;;;;;;;;;5075190;28;20215;-79
2023/11/30 11:49:57;;;;;;;6.60;6.00;;;;;;;;;;5072021;28;20202;-79
2023/11/30 11:52:27;;;;;;;8.77;6.70;;;;;;;;;;5072474;28;20195;-80
2023/11/30 11:55:03;;;;;;;7.37;6.17;;;;;;;;;;5072421;28;20195;-79
2023/11/30 11:57:38;;;;;;;11.40;6.60;;;;;;;;;;5072276;28;20198;-79
2023/11/30 12:00:06;;;;;;;9.30;6.43;;;;;;;;;;5071996;28;20897;-80
2023/11/30 12:02:35;;;;;;;9.10;6.43;;;;;;;;;;5072344;28;20223;-79
2023/11/30 12:05:09;;;;;;;10.43;7.43;;;;;;;;;;5071917;28;20191;-79
2023/11/30 12:07:38;;;;;;;9.23;6.93;;;;;;;;;;5071918;28;20232;-79
2023/11/30 12:10:06;;;;;;;9.83;7.87;;;;;;;;;;5072386;28;20256;-79
2023/11/30 12:12:33;;;;;;;9.37;7.60;;;;;;;;;;5072325;28;20199;-80
2023/11/30 12:15:00;;;;;;;10.43;7.60;;;;;;;;;;5071570;28;20203;-79
2023/11/30 12:17:28;;;;;;;9.73;7.53;;;;;;;;;;5072632;28;20286;-80
2023/11/30 12:19:56;;;;;;;9.57;8.03;;;;;;;;;;5080256;28;20574;-77
2023/11/30 12:22:23;;;;;;;9.37;7.60;;;;;;;;;;5081069;28;20286;-79
2023/11/30 12:24:50;;;;;;;10.27;7.97;;;;;;;;;;5091137;28;20281;-79
2023/11/30 12:27:18;;;;;;;9.33;7.80;;;;;;;;;;5091664;28;20736;-79
2023/11/30 12:29:45;;;;;;;11.27;8.33;;;;;;;;;;5091696;28;20285;-80
2023/11/30 12:32:12;;;;;;;9.93;8.03;;;;;;;;;;5091719;28;20206;-78
2023/11/30 12:34:40;;;;;;;10.97;7.83;;;;;;;;;;5091702;28;20209;-80
2023/11/30 12:37:08;;;;;;;9.93;8.17;;;;;;;;;;5091877;28;20194;-80
2023/11/30 12:39:35;;;;;;;11.00;9.00;;;;;;;;;;5091814;28;20739;-79
2023/11/30 12:42:02;;;;;;;10.60;8.20;;;;;;;;;;5091853;28;20231;-80
2023/11/30 12:44:30;;;;;;;10.70;8.33;;;;;;;;;;5091821;28;20230;-79
2023/11/30 12:46:57;;;;;;;9.30;8.07;;;;;;;;;;5091078;28;20194;-79
2023/11/30 12:49:24;;;;;;;10.57;8.27;;;;;;;;;;5091745;28;20269;-79
2023/11/30 12:51:51;;;;;;;10.73;8.40;;;;;;;;;;5092134;28;20301;-79
2023/11/30 12:54:20;;;;;;;11.37;7.93;;;;;;;;;;5091854;28;20204;-80
2023/11/30 12:56:47;;;;;;;8.87;7.87;;;;;;;;;;5090683;28;20289;-80
2023/11/30 12:59:14;;;;;;;12.30;8.13;;;;;;;;;;5091822;28;20295;-80
2023/11/30 13:01:41;;;;;;;9.77;8.07;;;;;;;;;;5090664;28;20572;-79
2023/11/30 13:04:09;;;;;;;9.97;8.60;;;;;;;;;;5092253;28;20640;-80
2023/11/30 13:06:36;;;;;;;13.17;8.60;;;;;;;;;;5091252;28;20634;-79
2023/11/30 13:09:04;;;;;;;10.87;8.70;;;;;;;;;;5091172;28;21020;-79
2023/11/30 13:11:32;;;;;;;15.97;11.07;;;;;;;;;;5092067;28;20201;-80
2023/11/30 13:14:01;;;;;;;14.83;11.40;;;;;;;;;;5091396;28;20229;-79
2023/11/30 13:16:28;;;;;;;18.67;12.63;;;;;;;;;;5091091;28;20190;-79
2023/11/30 13:18:55;;;;;;;14.47;11.87;;;;;;;;;;5091275;28;20301;-79
2023/11/30 13:21:23;;;;;;;14.80;10.47;;;;;;;;;;5091570;28;20285;-79
2023/11/30 13:23:50;;;;;;;13.33;10.70;;;;;;;;;;5091415;28;20281;-79
2023/11/30 13:26:18;;;;;;;11.27;9.97;;;;;;;;;;5091294;28;20562;-79
2023/11/30 13:28:46;;;;;;;13.23;10.10;;;;;;;;;;5091533;28;20230;-80
2023/11/30 13:31:14;;;;;;;13.13;10.73;;;;;;;;;;5091208;28;20237;-79
2023/11/30 13:33:41;;;;;;;13.77;10.17;;;;;;;;;;5091467;28;20205;-79
2023/11/30 13:36:09;;;;;;;13.27;10.50;;;;;;;;;;5090627;28;20199;-79
2023/11/30 13:38:36;;;;;;;13.53;9.87;;;;;;;;;;5091565;28;20273;-79
2023/11/30 13:41:03;;;;;;;12.13;9.63;;;;;;;;;;5091018;28;20222;-79
2023/11/30 13:43:31;;;;;;;12.77;10.03;;;;;;;;;;5091582;28;20662;-79
2023/11/30 13:45:59;;;;;;;12.30;9.43;;;;;;;;;;5090940;28;20635;-79
2023/11/30 13:48:27;;;;;;;10.83;9.70;;;;;;;;;;5090800;28;20599;-78
2023/11/30 13:50:54;;;;;;;13.57;10.17;;;;;;;;;;5091284;28;20220;-79
2023/11/30 13:53:21;;;;;;;10.57;9.47;;;;;;;;;;5091159;28;20205;-79
2023/11/30 13:55:48;;;;;;;13.23;9.67;;;;;;;;;;5090995;28;20692;-79
2023/11/30 13:58:16;;;;;;;10.83;9.43;;;;;;;;;;5090936;28;20281;-80
2023/11/30 14:00:43;;;;;;;10.60;9.17;;;;;;;;;;5090680;28;20309;-80
2023/11/30 14:03:12;;;;;;;11.83;9.63;;;;;;;;;;5091159;28;20201;-79
2023/11/30 14:05:41;;;;;;;12.67;10.10;;;;;;;;;;5091303;28;20213;-77
2023/11/30 14:08:10;;;;;;;11.63;8.87;;;;;;;;;;5093718;28;20230;-79
2023/11/30 14:10:38;;;;;;;11.67;9.97;;;;;;;;;;5094609;28;20202;-79
2023/11/30 14:13:05;;;;;;;11.87;9.63;;;;;;;;;;5094696;28;20229;-79
2023/11/30 14:15:32;;;;;;;13.17;10.30;;;;;;;;;;5094131;28;20194;-79
2023/11/30 14:18:00;;;;;;;12.37;9.93;;;;;;;;;;5094413;28;20210;-79
2023/11/30 14:20:29;;;;;;;11.40;9.23;;;;;;;;;;5094083;28;20678;-79
2023/11/30 14:22:56;;;;;;;11.60;9.63;;;;;;;;;;5094559;28;20203;-79
2023/11/30 14:25:25;;;;;;;10.70;9.00;;;;;;;;;;5093726;28;20293;-79